createdAt,value
2022-08-26T00:01:59.203Z,60.31
2022-08-26T00:05:03.820Z,59.93
2022-08-26T00:08:06.517Z,60.46
2022-08-26T00:11:11.700Z,60.59
2022-08-26T00:14:14.843Z,60.87
2022-08-26T00:17:18.749Z,61.13
2022-08-26T00:20:26.020Z,61.08
2022-08-26T00:23:30.338Z,60.72
2022-08-26T00:26:34.943Z,60.24
2022-08-26T00:29:37.815Z,60.69
2022-08-26T00:32:41.227Z,60.59
2022-08-26T00:35:47.417Z,61.08
2022-08-26T00:38:50.089Z,61.31
2022-08-26T00:41:54.029Z,61.53
2022-08-26T00:44:56.720Z,61.81
2022-08-26T00:48:02.537Z,62.29
2022-08-26T00:51:10.734Z,62.21
2022-08-26T00:54:14.058Z,62.98
2022-08-26T00:57:20.502Z,62.82
2022-08-26T01:00:28.324Z,62.96
2022-08-26T01:03:33.385Z,62.71
2022-08-26T01:06:36.100Z,63.03
2022-08-26T01:09:39.232Z,63.25
2022-08-26T01:12:49.941Z,62.98
2022-08-26T01:15:56.067Z,63.34
2022-08-26T01:19:04.008Z,63.40
2022-08-26T01:22:09.823Z,63.23
2022-08-26T01:25:14.588Z,63.43
2022-08-26T01:28:21.712Z,63.77
2022-08-26T01:31:29.659Z,63.81
2022-08-26T01:34:36.133Z,64.06
2022-08-26T01:37:40.507Z,64.02
2022-08-26T01:40:45.812Z,64.17
2022-08-26T01:43:51.225Z,64.28
2022-08-26T01:46:54.966Z,64.57
2022-08-26T01:49:58.447Z,64.71
2022-08-26T01:53:04.995Z,64.71
2022-08-26T01:56:10.237Z,65.04
2022-08-26T01:59:15.369Z,65.22
2022-08-26T02:02:20.141Z,65.22
2022-08-26T02:05:22.993Z,65.25
2022-08-26T02:08:28.308Z,65.40
2022-08-26T02:11:32.853Z,65.79
2022-08-26T02:14:43.707Z,65.71
2022-08-26T02:17:47.890Z,66.26
2022-08-26T02:20:51.739Z,66.39
2022-08-26T02:23:56.043Z,66.80
2022-08-26T02:27:01.487Z,66.38
2022-08-26T02:30:12.676Z,66.20
2022-08-26T02:33:15.484Z,66.34
2022-08-26T02:36:20.900Z,67.05
2022-08-26T02:39:23.694Z,66.54
2022-08-26T02:42:28.335Z,67.22
2022-08-26T02:45:31.192Z,67.79
2022-08-26T02:48:33.938Z,67.63
2022-08-26T02:51:36.949Z,67.89
2022-08-26T02:54:40.094Z,67.83
2022-08-26T02:57:44.197Z,68.21
2022-08-26T03:00:52.908Z,68.68
2022-08-26T03:03:56.430Z,69.22
2022-08-26T03:06:59.226Z,69.27
2022-08-26T03:10:01.866Z,69.22
2022-08-26T03:13:12.484Z,69.71
2022-08-26T03:16:15.687Z,69.69
2022-08-26T03:19:18.423Z,69.88
2022-08-26T03:22:21.681Z,69.97
2022-08-26T03:25:26.162Z,70.16
2022-08-26T03:28:30.072Z,70.40
2022-08-26T03:31:31.874Z,70.70
2022-08-26T03:34:35.015Z,71.04
2022-08-26T03:37:38.128Z,70.80
2022-08-26T03:40:42.398Z,70.53
2022-08-26T03:43:48.317Z,70.66
2022-08-26T03:46:51.310Z,71.02
2022-08-26T03:49:54.128Z,71.06
2022-08-26T03:52:57.131Z,71.02
2022-08-26T03:55:59.731Z,71.12
2022-08-26T03:59:04.030Z,71.33
2022-08-26T04:02:08.516Z,70.95
2022-08-26T04:05:15.001Z,70.99
2022-08-26T04:08:18.835Z,71.02
2022-08-26T04:11:23.089Z,70.89
2022-08-26T04:14:28.336Z,71.37
2022-08-26T04:17:30.985Z,72.27
2022-08-26T04:20:35.141Z,72.20
2022-08-26T04:23:47.511Z,72.05
2022-08-26T04:26:51.029Z,71.84
2022-08-26T04:29:55.408Z,71.82
2022-08-26T04:32:58.275Z,71.85
2022-08-26T04:36:02.280Z,71.97
2022-08-26T04:39:06.187Z,72.22
2022-08-26T04:42:09.544Z,72.18
2022-08-26T04:45:14.075Z,72.00
2022-08-26T04:48:17.003Z,71.92
2022-08-26T04:51:27.420Z,71.17
2022-08-26T04:54:30.868Z,70.72
2022-08-26T04:57:33.875Z,70.68
2022-08-26T05:00:38.165Z,70.52
2022-08-26T05:03:41.017Z,70.46
2022-08-26T05:06:44.528Z,70.18
2022-08-26T05:09:47.293Z,69.88
2022-08-26T05:12:49.924Z,69.50
2022-08-26T05:15:54.509Z,69.45
2022-08-26T05:18:59.362Z,68.85
2022-08-26T05:22:02.634Z,68.94
2022-08-26T05:25:05.763Z,68.72
2022-08-26T05:28:08.548Z,68.57
2022-08-26T05:31:17.774Z,68.36
2022-08-26T05:34:21.198Z,68.18
2022-08-26T05:37:24.217Z,68.14
2022-08-26T05:40:27.191Z,67.64
2022-08-26T05:43:29.898Z,67.34
2022-08-26T05:46:34.584Z,67.53
2022-08-26T05:49:37.281Z,67.33
2022-08-26T05:52:52.201Z,67.17
2022-08-26T05:55:56.057Z,66.97
2022-08-26T05:58:59.641Z,66.76
2022-08-26T06:02:04.374Z,66.76
2022-08-26T06:05:07.731Z,65.81
2022-08-26T06:08:14.113Z,66.12
2022-08-26T06:11:19.213Z,66.26
2022-08-26T06:14:22.953Z,66.08
2022-08-26T06:17:27.021Z,66.19
2022-08-26T06:20:31.991Z,65.40
2022-08-26T06:23:52.444Z,65.03
2022-08-26T06:26:56.775Z,65.20
2022-08-26T06:29:59.569Z,64.89
2022-08-26T06:33:03.783Z,64.94
2022-08-26T06:36:08.484Z,64.39
2022-08-26T06:39:13.423Z,64.01
2022-08-26T06:42:16.750Z,63.55
2022-08-26T06:45:20.049Z,62.88
2022-08-26T06:48:24.221Z,62.10
2022-08-26T06:51:30.953Z,61.82
2022-08-26T06:54:37.101Z,61.48
2022-08-26T06:57:41.496Z,61.36
2022-08-26T07:00:47.488Z,61.67
2022-08-26T07:03:54.561Z,61.39
2022-08-26T07:07:00.293Z,60.64
2022-08-26T07:10:04.767Z,60.51
2022-08-26T07:13:08.043Z,60.35
2022-08-26T07:16:13.033Z,59.99
2022-08-26T07:19:17.752Z,59.31
2022-08-26T07:22:32.364Z,59.16
2022-08-26T07:25:35.123Z,58.62
2022-08-26T07:28:38.509Z,58.30
2022-08-26T07:31:42.722Z,57.88
2022-08-26T07:34:47.041Z,57.90
2022-08-26T07:37:51.876Z,57.88
2022-08-26T07:40:57.856Z,57.01
2022-08-26T07:44:01.233Z,56.21
2022-08-26T07:47:03.857Z,55.67
2022-08-26T07:50:14.730Z,54.87
2022-08-26T07:53:18.263Z,54.30
2022-08-26T07:56:23.097Z,53.87
2022-08-26T07:59:26.263Z,53.51
2022-08-26T08:02:29.727Z,53.12
2022-08-26T08:05:34.486Z,52.46
2022-08-26T08:08:37.348Z,51.69
2022-08-26T08:11:40.482Z,51.49
2022-08-26T08:14:45.364Z,50.23
2022-08-26T08:17:50.431Z,50.50
2022-08-26T08:21:10.778Z,49.84
2022-08-26T08:24:18.055Z,49.00
2022-08-26T08:27:23.856Z,48.65
2022-08-26T08:30:28.065Z,48.45
2022-08-26T08:33:31.127Z,47.70
2022-08-26T08:36:36.261Z,47.58
2022-08-26T08:39:39.175Z,47.53
2022-08-26T08:42:46.887Z,47.67
2022-08-26T08:45:51.885Z,47.89
2022-08-26T08:48:57.252Z,48.21
2022-08-26T08:52:04.223Z,47.48
2022-08-26T08:55:11.039Z,46.09
2022-08-26T08:58:19.687Z,44.88
2022-08-26T09:01:29.638Z,43.70
2022-08-26T09:04:51.913Z,42.87
2022-08-26T09:07:57.594Z,42.67
2022-08-26T09:11:02.734Z,41.81
2022-08-26T09:14:05.410Z,41.64
2022-08-26T09:17:09.505Z,41.00
2022-08-26T09:20:15.789Z,39.58
2022-08-26T09:23:19.697Z,39.29
2022-08-26T09:26:29.240Z,38.90
2022-08-26T09:29:36.210Z,37.81
2022-08-26T09:32:39.112Z,36.87
2022-08-26T09:35:45.523Z,35.89
2022-08-26T09:38:50.384Z,35.54
2022-08-26T09:42:12.814Z,34.86
2022-08-26T09:45:17.231Z,35.25
2022-08-26T09:48:29.694Z,34.97
2022-08-26T09:51:32.885Z,34.47
2022-08-26T09:54:37.961Z,34.16
2022-08-26T09:57:47.372Z,34.86
2022-08-26T10:00:56.092Z,34.28
2022-08-26T10:04:07.330Z,34.67
2022-08-26T10:07:10.732Z,35.86
2022-08-26T10:10:19.858Z,35.41
2022-08-26T10:13:31.205Z,35.51
2022-08-26T10:16:40.764Z,34.97
2022-08-26T10:19:56.910Z,35.13
2022-08-26T10:23:02.789Z,34.63
2022-08-26T10:26:10.816Z,34.75
2022-08-26T10:29:19.794Z,34.60
2022-08-26T10:32:27.175Z,35.26
2022-08-26T10:35:31.835Z,34.95
2022-08-26T10:38:36.390Z,34.91
2022-08-26T10:41:44.385Z,34.72
2022-08-26T10:44:49.246Z,35.17
2022-08-26T10:47:56.540Z,35.34
2022-08-26T10:50:59.534Z,34.11
2022-08-26T10:54:04.079Z,34.98
2022-08-26T10:57:14.113Z,34.66
2022-08-26T11:00:37.921Z,34.77
2022-08-26T11:03:44.164Z,33.81
2022-08-26T11:06:46.839Z,32.97
2022-08-26T11:09:50.534Z,31.33
2022-08-26T11:12:57.707Z,30.91
2022-08-26T11:16:01.130Z,30.42
2022-08-26T11:19:04.095Z,29.17
2022-08-26T11:22:10.035Z,28.36
2022-08-26T11:25:15.684Z,28.65
2022-08-26T11:28:35.421Z,28.71
2022-08-26T11:31:54.577Z,29.00
2022-08-26T11:34:59.299Z,28.76
2022-08-26T11:38:05.377Z,29.13
2022-08-26T11:41:11.431Z,29.54
2022-08-26T11:44:21.603Z,30.02
2022-08-26T11:47:29.427Z,29.08
2022-08-26T11:50:32.363Z,28.06
2022-08-26T11:53:37.717Z,28.01
2022-08-26T11:56:42.925Z,28.91
2022-08-26T11:59:47.516Z,28.23
2022-08-26T12:02:51.273Z,28.70
2022-08-26T12:05:55.438Z,28.49
2022-08-26T12:09:00.630Z,28.76
2022-08-26T12:12:15.319Z,28.60
2022-08-26T12:15:21.937Z,28.25
2022-08-26T12:18:29.389Z,28.22
2022-08-26T12:21:34.880Z,28.40
2022-08-26T12:24:44.092Z,28.11
2022-08-26T12:27:49.581Z,27.30
2022-08-26T12:31:02.146Z,26.15
2022-08-26T12:34:06.551Z,26.33
2022-08-26T12:37:20.498Z,26.30
2022-08-26T12:40:34.174Z,26.46
2022-08-26T12:43:42.017Z,25.66
2022-08-26T12:46:49.740Z,24.99
2022-08-26T12:50:01.145Z,26.29
2022-08-26T12:53:06.976Z,26.59
2022-08-26T12:56:22.286Z,23.72
2022-08-26T12:59:26.909Z,24.66
2022-08-26T13:02:37.667Z,20.38
2022-08-26T13:05:40.285Z,16.99
2022-08-26T13:08:43.297Z,14.91
2022-08-26T13:11:59.322Z,12.45
2022-08-26T13:15:06.448Z,10.96
2022-08-26T13:18:10.421Z,10.57
2022-08-26T13:21:14.543Z,10.76
2022-08-26T13:24:19.615Z,10.97
2022-08-26T13:27:24.429Z,15.17
2022-08-26T13:30:27.055Z,18.28
2022-08-26T13:33:31.204Z,21.56
2022-08-26T13:36:33.721Z,23.37
2022-08-26T13:39:36.757Z,25.83
2022-08-26T13:42:49.548Z,26.54
2022-08-26T13:45:52.663Z,26.90
2022-08-26T13:48:56.952Z,27.38
2022-08-26T13:51:59.684Z,26.75
2022-08-26T13:55:02.465Z,27.00
2022-08-26T13:58:05.095Z,27.54
2022-08-26T14:01:09.854Z,27.29
2022-08-26T14:04:13.816Z,27.51
2022-08-26T14:07:16.553Z,28.59
2022-08-26T14:10:19.291Z,29.09
2022-08-26T14:13:24.424Z,29.88
2022-08-26T14:16:28.975Z,29.65
2022-08-26T14:19:33.216Z,30.37
2022-08-26T14:22:40.495Z,31.40
2022-08-26T14:25:46.308Z,31.84
2022-08-26T14:28:48.892Z,31.32
2022-08-26T14:31:51.811Z,31.82
2022-08-26T14:34:56.274Z,32.14
2022-08-26T14:37:59.240Z,32.45
2022-08-26T14:41:01.937Z,32.05
2022-08-26T14:44:07.320Z,32.17
2022-08-26T14:47:12.712Z,32.34
2022-08-26T14:50:19.614Z,32.30
2022-08-26T14:53:39.978Z,32.88
2022-08-26T14:56:46.521Z,32.67
2022-08-26T14:59:50.463Z,32.66
2022-08-26T15:02:53.249Z,32.28
2022-08-26T15:05:57.396Z,32.56
2022-08-26T15:09:00.460Z,32.60
2022-08-26T15:12:03.402Z,32.79
2022-08-26T15:15:07.302Z,32.82
2022-08-26T15:18:10.088Z,33.20
2022-08-26T15:21:14.354Z,33.33
2022-08-26T15:24:18.709Z,33.57
2022-08-26T15:27:21.512Z,33.27
2022-08-26T15:30:24.182Z,33.65
2022-08-26T15:33:26.881Z,34.30
2022-08-26T15:36:32.383Z,34.75
2022-08-26T15:39:35.406Z,34.89
2022-08-26T15:42:38.037Z,35.89
2022-08-26T15:45:40.663Z,37.48
2022-08-26T15:48:43.374Z,38.17
2022-08-26T15:51:50.325Z,40.03
2022-08-26T15:54:53.220Z,41.79
2022-08-26T15:57:55.815Z,42.16
2022-08-26T16:00:59.902Z,43.31
2022-08-26T16:04:03.163Z,44.72
2022-08-26T16:07:07.234Z,48.38
2022-08-26T16:10:10.582Z,59.73
2022-08-26T16:13:14.808Z,69.93
2022-08-26T16:16:17.984Z,71.34
2022-08-26T16:19:21.029Z,75.56
2022-08-26T16:22:27.162Z,73.52
2022-08-26T16:25:31.464Z,74.25
2022-08-26T16:28:34.186Z,79.03
2022-08-26T16:31:37.929Z,79.70
2022-08-26T16:34:56.720Z,78.39
2022-08-26T16:38:01.250Z,80.32
2022-08-26T16:41:04.574Z,80.80
2022-08-26T16:44:08.256Z,82.37
2022-08-26T16:47:12.186Z,83.49
2022-08-26T16:50:16.068Z,84.48
2022-08-26T16:53:20.155Z,84.17
2022-08-26T16:56:33.586Z,87.18
2022-08-26T16:59:37.005Z,87.49
2022-08-26T17:02:40.011Z,87.67
2022-08-26T17:05:42.756Z,85.04
2022-08-26T17:08:46.662Z,84.33
2022-08-26T17:11:50.261Z,86.58
2022-08-26T17:14:52.960Z,85.86
2022-08-26T17:17:56.620Z,81.74
2022-08-26T17:21:02.111Z,83.17
2022-08-26T17:24:06.904Z,82.01
2022-08-26T17:27:09.704Z,83.05
2022-08-26T17:30:13.545Z,80.97
2022-08-26T17:33:17.094Z,86.06
2022-08-26T17:36:28.062Z,89.86
2022-08-26T17:39:32.350Z,90.43
2022-08-26T17:42:34.946Z,89.97
2022-08-26T17:45:38.461Z,90.37
2022-08-26T17:48:41.723Z,91.78
2022-08-26T17:51:44.164Z,90.45
2022-08-26T17:54:48.134Z,89.32
2022-08-26T17:57:53.557Z,90.82
2022-08-26T18:00:56.462Z,88.91
2022-08-26T18:04:00.607Z,90.84
2022-08-26T18:07:03.791Z,89.30
2022-08-26T18:10:13.015Z,89.86
2022-08-26T18:13:16.249Z,89.30
2022-08-26T18:16:19.435Z,90.92
2022-08-26T18:19:21.851Z,91.52
2022-08-26T18:22:24.346Z,91.33
2022-08-26T18:25:28.302Z,92.08
2022-08-26T18:28:30.884Z,93.53
2022-08-26T18:31:35.334Z,92.08
2022-08-26T18:34:38.031Z,91.40
2022-08-26T18:37:40.992Z,90.61
2022-08-26T18:40:46.499Z,91.76
2022-08-26T18:43:50.252Z,93.62
2022-08-26T18:46:53.155Z,94.27
2022-08-26T18:49:55.765Z,95.11
2022-08-26T18:52:58.367Z,95.70
2022-08-26T18:56:02.438Z,96.19
2022-08-26T18:59:06.833Z,95.60
2022-08-26T19:02:10.223Z,93.46
2022-08-26T19:05:12.985Z,94.05
2022-08-26T19:08:15.625Z,96.29
2022-08-26T19:11:31.192Z,96.18
2022-08-26T19:14:40.450Z,95.76
2022-08-26T19:17:43.062Z,95.39
2022-08-26T19:20:47.804Z,95.23
2022-08-26T19:23:50.495Z,94.62
2022-08-26T19:26:58.355Z,95.10
2022-08-26T19:30:01.142Z,95.01
2022-08-26T19:33:05.197Z,95.09
2022-08-26T19:36:14.143Z,95.66
2022-08-26T19:39:17.635Z,95.24
2022-08-26T19:42:21.652Z,95.53
2022-08-26T19:45:25.484Z,95.39
2022-08-26T19:48:29.108Z,93.68
2022-08-26T19:51:33.501Z,93.27
2022-08-26T19:54:36.258Z,92.32
2022-08-26T19:57:40.437Z,92.46
2022-08-26T20:00:43.032Z,91.65
2022-08-26T20:03:46.016Z,91.16
2022-08-26T20:06:48.636Z,91.02
2022-08-26T20:09:59.323Z,91.05
2022-08-26T20:13:03.207Z,90.90
2022-08-26T20:16:06.411Z,91.28
2022-08-26T20:19:26.306Z,91.47
2022-08-26T20:22:29.195Z,91.19
2022-08-26T20:25:32.935Z,91.51
2022-08-26T20:28:36.948Z,91.49
2022-08-26T20:31:39.906Z,91.18
2022-08-26T20:34:42.653Z,91.68
2022-08-26T20:37:45.230Z,92.71
2022-08-26T20:40:48.844Z,93.45
2022-08-26T20:43:52.810Z,92.01
2022-08-26T20:46:56.546Z,90.24
2022-08-26T20:49:59.191Z,89.90
2022-08-26T20:53:01.887Z,90.67
2022-08-26T20:56:06.774Z,91.43
2022-08-26T20:59:10.895Z,92.18
2022-08-26T21:02:13.483Z,93.27
2022-08-26T21:05:16.134Z,93.60
2022-08-26T21:08:18.820Z,94.36
2022-08-26T21:11:22.536Z,94.88
2022-08-26T21:14:26.537Z,95.04
2022-08-26T21:17:29.263Z,94.45
2022-08-26T21:20:32.498Z,94.29
2022-08-26T21:23:35.232Z,95.74
2022-08-26T21:26:38.123Z,95.05
2022-08-26T21:29:42.011Z,94.96
2022-08-26T21:32:44.648Z,94.32
2022-08-26T21:35:52.266Z,93.85
2022-08-26T21:38:56.683Z,93.10
2022-08-26T21:41:59.338Z,92.47
2022-08-26T21:45:05.276Z,92.15
2022-08-26T21:48:07.859Z,92.06
2022-08-26T21:51:12.074Z,91.46
2022-08-26T21:54:15.451Z,91.98
2022-08-26T21:57:18.419Z,91.83
2022-08-26T22:00:22.625Z,92.38
2022-08-26T22:03:25.308Z,92.87
2022-08-26T22:06:29.742Z,92.89
2022-08-26T22:09:32.861Z,93.72
2022-08-26T22:12:36.101Z,93.10
2022-08-26T22:15:40.665Z,93.80
2022-08-26T22:18:43.831Z,93.22
2022-08-26T22:21:46.649Z,92.82
2022-08-26T22:24:49.221Z,91.71
2022-08-26T22:27:51.949Z,91.67
2022-08-26T22:30:56.539Z,92.21
2022-08-26T22:33:59.794Z,91.99
2022-08-26T22:37:03.140Z,91.39
2022-08-26T22:40:07.459Z,91.02
2022-08-26T22:43:10.018Z,90.54
2022-08-26T22:46:18.411Z,89.97
2022-08-26T22:49:21.157Z,90.32
2022-08-26T22:52:23.949Z,90.32
2022-08-26T22:55:26.623Z,90.55
2022-08-26T22:58:30.585Z,90.15
2022-08-26T23:01:37.731Z,89.79
2022-08-26T23:04:40.988Z,90.13
2022-08-26T23:07:43.536Z,89.98
2022-08-26T23:10:47.863Z,88.12
2022-08-26T23:13:50.577Z,87.09
2022-08-26T23:16:54.635Z,85.97
2022-08-26T23:19:58.065Z,84.71
2022-08-26T23:23:01.353Z,84.42
2022-08-26T23:26:06.224Z,84.04
2022-08-26T23:29:10.876Z,83.97
2022-08-26T23:32:14.974Z,83.72
2022-08-26T23:35:21.484Z,84.25
2022-08-26T23:38:24.186Z,84.46
2022-08-26T23:41:27.516Z,84.11
2022-08-26T23:44:30.922Z,84.75
2022-08-26T23:47:34.956Z,84.16
2022-08-26T23:50:55.122Z,85.13
2022-08-26T23:53:58.421Z,84.94
2022-08-26T23:57:01.101Z,86.84
